sensor_id;sensor_type;location;lat;lon;timestamp;P1;durP1;ratioP1;P2;durP2;ratioP2
47856;SDS011;33618;49.972;8.242;2022-09-16T00:02:43;3.83;;;1.30;;
47856;SDS011;33618;49.972;8.242;2022-09-16T00:05:29;1.50;;;1.05;;
47856;SDS011;33618;49.972;8.242;2022-09-16T00:08:14;4.90;;;1.40;;
47856;SDS011;33618;49.972;8.242;2022-09-16T00:11:01;3.53;;;1.40;;
47856;SDS011;33618;49.972;8.242;2022-09-16T00:13:46;5.22;;;1.55;;
47856;SDS011;33618;49.972;8.242;2022-09-16T00:16:32;3.40;;;1.48;;
47856;SDS011;33618;49.972;8.242;2022-09-16T00:19:18;3.20;;;1.48;;
47856;SDS011;33618;49.972;8.242;2022-09-16T00:22:03;3.67;;;1.20;;
47856;SDS011;33618;49.972;8.242;2022-09-16T00:36:59;3.58;;;1.30;;
47856;SDS011;33618;49.972;8.242;2022-09-16T00:39:47;5.93;;;1.75;;
47856;SDS011;33618;49.972;8.242;2022-09-16T00:42:37;2.20;;;1.40;;
47856;SDS011;33618;49.972;8.242;2022-09-16T00:45:24;5.57;;;1.45;;
47856;SDS011;33618;49.972;8.242;2022-09-16T00:48:17;2.75;;;1.20;;
47856;SDS011;33618;49.972;8.242;2022-09-16T00:51:07;1.98;;;1.30;;
47856;SDS011;33618;49.972;8.242;2022-09-16T01:01:38;2.00;;;1.42;;
47856;SDS011;33618;49.972;8.242;2022-09-16T01:04:27;1.95;;;1.15;;
47856;SDS011;33618;49.972;8.242;2022-09-16T01:07:17;3.15;;;1.52;;
47856;SDS011;33618;49.972;8.242;2022-09-16T01:10:19;4.53;;;1.42;;
47856;SDS011;33618;49.972;8.242;2022-09-16T01:13:08;7.97;;;1.42;;
47856;SDS011;33618;49.972;8.242;2022-09-16T01:26:07;1.10;;;0.95;;
47856;SDS011;33618;49.972;8.242;2022-09-16T01:38:26;5.03;;;1.25;;
47856;SDS011;33618;49.972;8.242;2022-09-16T01:44:20;3.85;;;1.30;;
47856;SDS011;33618;49.972;8.242;2022-09-16T01:56:58;2.42;;;1.15;;
47856;SDS011;33618;49.972;8.242;2022-09-16T01:59:56;3.17;;;1.10;;
47856;SDS011;33618;49.972;8.242;2022-09-16T02:05:54;2.75;;;0.95;;
47856;SDS011;33618;49.972;8.242;2022-09-16T02:08:44;3.40;;;1.20;;
47856;SDS011;33618;49.972;8.242;2022-09-16T02:11:36;5.10;;;1.13;;
47856;SDS011;33618;49.972;8.242;2022-09-16T02:14:24;2.65;;;0.90;;
47856;SDS011;33618;49.972;8.242;2022-09-16T02:17:17;1.00;;;0.90;;
47856;SDS011;33618;49.972;8.242;2022-09-16T02:20:07;2.78;;;0.93;;
47856;SDS011;33618;49.972;8.242;2022-09-16T02:23:03;4.07;;;1.35;;
47856;SDS011;33618;49.972;8.242;2022-09-16T02:25:53;2.03;;;1.02;;
47856;SDS011;33618;49.972;8.242;2022-09-16T02:28:41;3.75;;;1.20;;
47856;SDS011;33618;49.972;8.242;2022-09-16T02:31:31;3.20;;;1.15;;
47856;SDS011;33618;49.972;8.242;2022-09-16T02:34:22;6.30;;;0.90;;
47856;SDS011;33618;49.972;8.242;2022-09-16T02:37:21;4.32;;;1.00;;
47856;SDS011;33618;49.972;8.242;2022-09-16T02:43:32;6.30;;;1.45;;
47856;SDS011;33618;49.972;8.242;2022-09-16T02:46:23;7.43;;;1.17;;
47856;SDS011;33618;49.972;8.242;2022-09-16T02:52:50;4.63;;;1.20;;
47856;SDS011;33618;49.972;8.242;2022-09-16T02:59:24;4.45;;;1.48;;
47856;SDS011;33618;49.972;8.242;2022-09-16T03:02:10;2.22;;;1.20;;
47856;SDS011;33618;49.972;8.242;2022-09-16T03:04:56;2.65;;;1.30;;
47856;SDS011;33618;49.972;8.242;2022-09-16T03:07:42;7.30;;;1.77;;
47856;SDS011;33618;49.972;8.242;2022-09-16T03:10:28;1.67;;;1.25;;
47856;SDS011;33618;49.972;8.242;2022-09-16T03:13:32;5.70;;;1.20;;
47856;SDS011;33618;49.972;8.242;2022-09-16T03:23:29;3.63;;;1.38;;
47856;SDS011;33618;49.972;8.242;2022-09-16T03:26:45;2.35;;;1.27;;
47856;SDS011;33618;49.972;8.242;2022-09-16T03:29:40;4.10;;;1.27;;
47856;SDS011;33618;49.972;8.242;2022-09-16T03:32:47;2.70;;;1.55;;
47856;SDS011;33618;49.972;8.242;2022-09-16T03:35:47;4.55;;;1.42;;
47856;SDS011;33618;49.972;8.242;2022-09-16T03:38:35;4.63;;;1.50;;
47856;SDS011;33618;49.972;8.242;2022-09-16T03:41:47;3.03;;;1.50;;
47856;SDS011;33618;49.972;8.242;2022-09-16T03:44:33;5.97;;;1.80;;
47856;SDS011;33618;49.972;8.242;2022-09-16T03:47:22;2.75;;;1.70;;
47856;SDS011;33618;49.972;8.242;2022-09-16T03:50:09;3.58;;;1.73;;
47856;SDS011;33618;49.972;8.242;2022-09-16T03:52:58;4.10;;;1.48;;
47856;SDS011;33618;49.972;8.242;2022-09-16T04:03:29;5.25;;;1.55;;
47856;SDS011;33618;49.972;8.242;2022-09-16T04:06:17;6.38;;;1.77;;
47856;SDS011;33618;49.972;8.242;2022-09-16T04:09:10;4.75;;;1.80;;
47856;SDS011;33618;49.972;8.242;2022-09-16T04:12:06;9.75;;;1.70;;
47856;SDS011;33618;49.972;8.242;2022-09-16T04:14:52;6.30;;;1.80;;
47856;SDS011;33618;49.972;8.242;2022-09-16T04:17:44;3.53;;;1.70;;
47856;SDS011;33618;49.972;8.242;2022-09-16T04:20:35;7.90;;;1.70;;
47856;SDS011;33618;49.972;8.242;2022-09-16T04:23:24;2.47;;;1.40;;
47856;SDS011;33618;49.972;8.242;2022-09-16T04:26:10;3.40;;;1.40;;
47856;SDS011;33618;49.972;8.242;2022-09-16T04:28:57;5.07;;;1.60;;
47856;SDS011;33618;49.972;8.242;2022-09-16T04:31:43;2.15;;;1.60;;
47856;SDS011;33618;49.972;8.242;2022-09-16T04:34:31;6.57;;;1.58;;
47856;SDS011;33618;49.972;8.242;2022-09-16T04:37:17;4.88;;;1.88;;
47856;SDS011;33618;49.972;8.242;2022-09-16T04:40:06;1.92;;;1.50;;
47856;SDS011;33618;49.972;8.242;2022-09-16T04:42:52;6.15;;;2.13;;
47856;SDS011;33618;49.972;8.242;2022-09-16T04:45:46;2.60;;;1.95;;
47856;SDS011;33618;49.972;8.242;2022-09-16T04:48:36;6.93;;;1.73;;
47856;SDS011;33618;49.972;8.242;2022-09-16T04:51:26;5.28;;;1.80;;
47856;SDS011;33618;49.972;8.242;2022-09-16T04:54:12;2.03;;;1.65;;
47856;SDS011;33618;49.972;8.242;2022-09-16T05:01:55;4.78;;;1.90;;
47856;SDS011;33618;49.972;8.242;2022-09-16T05:04:43;3.22;;;1.65;;
47856;SDS011;33618;49.972;8.242;2022-09-16T05:11:32;5.82;;;2.00;;
47856;SDS011;33618;49.972;8.242;2022-09-16T05:14:19;5.45;;;1.80;;
47856;SDS011;33618;49.972;8.242;2022-09-16T05:17:08;3.95;;;2.00;;
47856;SDS011;33618;49.972;8.242;2022-09-16T05:19:57;3.15;;;1.65;;
47856;SDS011;33618;49.972;8.242;2022-09-16T05:22:42;9.52;;;1.90;;
47856;SDS011;33618;49.972;8.242;2022-09-16T05:25:28;4.25;;;1.77;;
47856;SDS011;33618;49.972;8.242;2022-09-16T05:28:15;3.85;;;1.70;;
47856;SDS011;33618;49.972;8.242;2022-09-16T05:37:07;5.38;;;2.00;;
47856;SDS011;33618;49.972;8.242;2022-09-16T05:39:56;2.53;;;1.85;;
47856;SDS011;33618;49.972;8.242;2022-09-16T05:42:41;2.72;;;1.80;;
47856;SDS011;33618;49.972;8.242;2022-09-16T05:45:32;6.80;;;1.80;;
47856;SDS011;33618;49.972;8.242;2022-09-16T05:48:22;4.13;;;1.92;;
47856;SDS011;33618;49.972;8.242;2022-09-16T05:51:08;3.08;;;1.75;;
47856;SDS011;33618;49.972;8.242;2022-09-16T05:54:09;7.50;;;1.90;;
47856;SDS011;33618;49.972;8.242;2022-09-16T05:56:54;4.05;;;2.10;;
47856;SDS011;33618;49.972;8.242;2022-09-16T05:59:43;4.10;;;1.80;;
47856;SDS011;33618;49.972;8.242;2022-09-16T06:02:29;4.53;;;1.67;;
47856;SDS011;33618;49.972;8.242;2022-09-16T06:05:17;3.55;;;1.65;;
47856;SDS011;33618;49.972;8.242;2022-09-16T06:20:01;4.40;;;1.60;;
47856;SDS011;33618;49.972;8.242;2022-09-16T06:22:47;6.60;;;1.42;;
47856;SDS011;33618;49.972;8.242;2022-09-16T06:25:33;3.15;;;1.50;;
47856;SDS011;33618;49.972;8.242;2022-09-16T06:28:18;4.80;;;1.58;;
47856;SDS011;33618;49.972;8.242;2022-09-16T06:31:09;4.32;;;1.83;;
47856;SDS011;33618;49.972;8.242;2022-09-16T06:34:07;4.53;;;1.52;;
47856;SDS011;33618;49.972;8.242;2022-09-16T06:36:58;4.35;;;1.67;;
47856;SDS011;33618;49.972;8.242;2022-09-16T06:39:47;4.97;;;1.50;;
47856;SDS011;33618;49.972;8.242;2022-09-16T06:42:36;2.17;;;1.30;;
47856;SDS011;33618;49.972;8.242;2022-09-16T06:45:22;3.90;;;1.60;;
47856;SDS011;33618;49.972;8.242;2022-09-16T06:48:10;7.55;;;1.95;;
47856;SDS011;33618;49.972;8.242;2022-09-16T06:51:00;2.08;;;1.33;;
47856;SDS011;33618;49.972;8.242;2022-09-16T06:53:50;7.10;;;1.70;;
47856;SDS011;33618;49.972;8.242;2022-09-16T06:56:37;4.03;;;1.45;;
47856;SDS011;33618;49.972;8.242;2022-09-16T06:59:25;2.47;;;1.35;;
47856;SDS011;33618;49.972;8.242;2022-09-16T07:02:10;3.80;;;1.40;;
47856;SDS011;33618;49.972;8.242;2022-09-16T07:04:56;4.47;;;1.60;;
47856;SDS011;33618;49.972;8.242;2022-09-16T07:07:48;4.60;;;1.50;;
47856;SDS011;33618;49.972;8.242;2022-09-16T07:10:34;5.90;;;1.52;;
47856;SDS011;33618;49.972;8.242;2022-09-16T07:16:09;5.88;;;1.55;;
47856;SDS011;33618;49.972;8.242;2022-09-16T07:18:58;3.85;;;1.50;;
47856;SDS011;33618;49.972;8.242;2022-09-16T07:21:52;3.00;;;1.30;;
47856;SDS011;33618;49.972;8.242;2022-09-16T07:24:44;2.28;;;1.45;;
47856;SDS011;33618;49.972;8.242;2022-09-16T07:27:30;2.97;;;1.10;;
47856;SDS011;33618;49.972;8.242;2022-09-16T07:30:16;5.97;;;1.27;;
47856;SDS011;33618;49.972;8.242;2022-09-16T07:33:07;4.45;;;1.23;;
47856;SDS011;33618;49.972;8.242;2022-09-16T07:36:04;5.32;;;1.48;;
47856;SDS011;33618;49.972;8.242;2022-09-16T07:38:53;2.17;;;1.20;;
47856;SDS011;33618;49.972;8.242;2022-09-16T07:41:43;3.92;;;1.25;;
47856;SDS011;33618;49.972;8.242;2022-09-16T07:44:40;4.10;;;1.27;;
47856;SDS011;33618;49.972;8.242;2022-09-16T07:47:26;3.42;;;1.17;;
47856;SDS011;33618;49.972;8.242;2022-09-16T07:50:15;3.40;;;1.20;;
47856;SDS011;33618;49.972;8.242;2022-09-16T07:53:00;5.43;;;1.20;;
47856;SDS011;33618;49.972;8.242;2022-09-16T07:55:49;2.15;;;1.35;;
47856;SDS011;33618;49.972;8.242;2022-09-16T07:58:34;2.35;;;1.10;;
47856;SDS011;33618;49.972;8.242;2022-09-16T08:01:27;3.42;;;0.98;;
47856;SDS011;33618;49.972;8.242;2022-09-16T08:04:27;5.28;;;1.20;;
47856;SDS011;33618;49.972;8.242;2022-09-16T08:07:14;5.57;;;0.80;;
47856;SDS011;33618;49.972;8.242;2022-09-16T08:17:49;4.88;;;1.20;;
47856;SDS011;33618;49.972;8.242;2022-09-16T08:23:41;3.15;;;0.80;;
47856;SDS011;33618;49.972;8.242;2022-09-16T08:26:30;2.92;;;0.90;;
47856;SDS011;33618;49.972;8.242;2022-09-16T08:29:15;2.17;;;1.10;;
47856;SDS011;33618;49.972;8.242;2022-09-16T08:39:26;1.13;;;0.80;;
47856;SDS011;33618;49.972;8.242;2022-09-16T08:48:51;2.35;;;0.90;;
47856;SDS011;33618;49.972;8.242;2022-09-16T08:51:45;2.20;;;1.08;;
47856;SDS011;33618;49.972;8.242;2022-09-16T08:54:33;5.68;;;2.00;;
47856;SDS011;33618;49.972;8.242;2022-09-16T08:57:25;1.83;;;1.02;;
47856;SDS011;33618;49.972;8.242;2022-09-16T09:00:29;1.83;;;0.88;;
47856;SDS011;33618;49.972;8.242;2022-09-16T09:03:18;3.35;;;0.90;;
47856;SDS011;33618;49.972;8.242;2022-09-16T09:12:39;1.83;;;0.73;;
47856;SDS011;33618;49.972;8.242;2022-09-16T09:15:53;1.27;;;0.90;;
47856;SDS011;33618;49.972;8.242;2022-09-16T09:22:07;2.28;;;0.68;;
47856;SDS011;33618;49.972;8.242;2022-09-16T09:38:46;2.05;;;0.90;;
47856;SDS011;33618;49.972;8.242;2022-09-16T09:41:49;1.95;;;0.90;;
47856;SDS011;33618;49.972;8.242;2022-09-16T09:48:01;2.70;;;0.82;;
47856;SDS011;33618;49.972;8.242;2022-09-16T09:51:03;4.13;;;1.15;;
47856;SDS011;33618;49.972;8.242;2022-09-16T09:54:22;3.97;;;0.90;;
47856;SDS011;33618;49.972;8.242;2022-09-16T10:00:12;3.53;;;0.80;;
47856;SDS011;33618;49.972;8.242;2022-09-16T10:03:06;3.35;;;0.98;;
47856;SDS011;33618;49.972;8.242;2022-09-16T10:06:01;1.08;;;0.80;;
47856;SDS011;33618;49.972;8.242;2022-09-16T10:08:54;2.45;;;0.90;;
47856;SDS011;33618;49.972;8.242;2022-09-16T10:11:52;2.13;;;1.10;;
47856;SDS011;33618;49.972;8.242;2022-09-16T10:14:44;2.88;;;0.90;;
47856;SDS011;33618;49.972;8.242;2022-09-16T10:17:35;2.50;;;0.90;;
47856;SDS011;33618;49.972;8.242;2022-09-16T10:20:26;5.60;;;1.52;;
47856;SDS011;33618;49.972;8.242;2022-09-16T10:23:19;3.58;;;0.98;;
47856;SDS011;33618;49.972;8.242;2022-09-16T10:26:38;0.82;;;0.80;;
47856;SDS011;33618;49.972;8.242;2022-09-16T10:29:26;3.70;;;1.00;;
47856;SDS011;33618;49.972;8.242;2022-09-16T10:32:17;4.13;;;1.10;;
47856;SDS011;33618;49.972;8.242;2022-09-16T10:38:49;1.88;;;0.80;;
47856;SDS011;33618;49.972;8.242;2022-09-16T10:41:51;2.25;;;0.98;;
47856;SDS011;33618;49.972;8.242;2022-09-16T10:44:41;2.15;;;0.77;;
47856;SDS011;33618;49.972;8.242;2022-09-16T10:47:29;2.20;;;0.80;;
47856;SDS011;33618;49.972;8.242;2022-09-16T10:50:20;2.40;;;0.73;;
47856;SDS011;33618;49.972;8.242;2022-09-16T10:53:20;6.90;;;1.15;;
47856;SDS011;33618;49.972;8.242;2022-09-16T10:56:32;3.85;;;0.98;;
47856;SDS011;33618;49.972;8.242;2022-09-16T10:59:31;1.15;;;0.70;;
47856;SDS011;33618;49.972;8.242;2022-09-16T11:05:39;2.60;;;0.80;;
47856;SDS011;33618;49.972;8.242;2022-09-16T11:12:00;3.97;;;0.80;;
47856;SDS011;33618;49.972;8.242;2022-09-16T11:24:46;1.38;;;0.73;;
47856;SDS011;33618;49.972;8.242;2022-09-16T11:27:47;2.03;;;0.80;;
47856;SDS011;33618;49.972;8.242;2022-09-16T11:30:46;2.90;;;0.70;;
47856;SDS011;33618;49.972;8.242;2022-09-16T11:40:46;3.17;;;0.95;;
47856;SDS011;33618;49.972;8.242;2022-09-16T11:56:52;0.82;;;0.82;;
47856;SDS011;33618;49.972;8.242;2022-09-16T11:59:44;3.53;;;0.90;;
47856;SDS011;33618;49.972;8.242;2022-09-16T12:05:51;3.03;;;0.63;;
47856;SDS011;33618;49.972;8.242;2022-09-16T12:08:57;0.82;;;0.68;;
47856;SDS011;33618;49.972;8.242;2022-09-16T12:11:54;4.00;;;0.70;;
47856;SDS011;33618;49.972;8.242;2022-09-16T12:15:01;1.95;;;0.60;;
47856;SDS011;33618;49.972;8.242;2022-09-16T12:17:54;0.60;;;0.60;;
47856;SDS011;33618;49.972;8.242;2022-09-16T12:20:48;1.30;;;0.60;;
47856;SDS011;33618;49.972;8.242;2022-09-16T12:23:41;1.15;;;0.50;;
47856;SDS011;33618;49.972;8.242;2022-09-16T12:26:33;1.63;;;0.90;;
47856;SDS011;33618;49.972;8.242;2022-09-16T12:29:46;1.27;;;0.60;;
47856;SDS011;33618;49.972;8.242;2022-09-16T12:35:37;1.10;;;0.50;;
47856;SDS011;33618;49.972;8.242;2022-09-16T13:01:14;0.70;;;0.52;;
47856;SDS011;33618;49.972;8.242;2022-09-16T13:04:03;0.60;;;0.52;;
47856;SDS011;33618;49.972;8.242;2022-09-16T13:07:23;1.08;;;0.60;;
47856;SDS011;33618;49.972;8.242;2022-09-16T13:10:18;2.40;;;0.40;;
47856;SDS011;33618;49.972;8.242;2022-09-16T13:13:34;0.68;;;0.50;;
47856;SDS011;33618;49.972;8.242;2022-09-16T13:16:32;2.75;;;0.70;;
47856;SDS011;33618;49.972;8.242;2022-09-16T13:19:27;3.10;;;0.80;;
47856;SDS011;33618;49.972;8.242;2022-09-16T13:22:40;1.90;;;0.70;;
47856;SDS011;33618;49.972;8.242;2022-09-16T13:26:16;2.05;;;0.68;;
47856;SDS011;33618;49.972;8.242;2022-09-16T13:28:46;1.35;;;0.50;;
47856;SDS011;33618;49.972;8.242;2022-09-16T13:31:43;0.75;;;0.60;;
47856;SDS011;33618;49.972;8.242;2022-09-16T13:34:31;0.93;;;0.73;;
47856;SDS011;33618;49.972;8.242;2022-09-16T13:37:23;1.50;;;0.55;;
47856;SDS011;33618;49.972;8.242;2022-09-16T13:43:52;0.50;;;0.50;;
47856;SDS011;33618;49.972;8.242;2022-09-16T13:46:37;1.53;;;0.50;;
47856;SDS011;33618;49.972;8.242;2022-09-16T13:49:23;0.60;;;0.60;;
47856;SDS011;33618;49.972;8.242;2022-09-16T13:52:12;1.30;;;0.55;;
47856;SDS011;33618;49.972;8.242;2022-09-16T13:55:06;0.70;;;0.47;;
47856;SDS011;33618;49.972;8.242;2022-09-16T13:58:06;0.40;;;0.40;;
47856;SDS011;33618;49.972;8.242;2022-09-16T14:01:06;1.05;;;0.47;;
47856;SDS011;33618;49.972;8.242;2022-09-16T14:13:47;0.55;;;0.47;;
47856;SDS011;33618;49.972;8.242;2022-09-16T14:16:34;0.93;;;0.60;;
47856;SDS011;33618;49.972;8.242;2022-09-16T14:19:31;0.50;;;0.50;;
47856;SDS011;33618;49.972;8.242;2022-09-16T14:22:20;0.70;;;0.70;;
47856;SDS011;33618;49.972;8.242;2022-09-16T14:28:34;1.75;;;0.63;;
47856;SDS011;33618;49.972;8.242;2022-09-16T14:31:25;1.95;;;0.60;;
47856;SDS011;33618;49.972;8.242;2022-09-16T14:34:23;3.05;;;0.60;;
47856;SDS011;33618;49.972;8.242;2022-09-16T14:37:14;2.92;;;0.50;;
47856;SDS011;33618;49.972;8.242;2022-09-16T14:50:29;0.73;;;0.50;;
47856;SDS011;33618;49.972;8.242;2022-09-16T14:53:33;0.77;;;0.40;;
47856;SDS011;33618;49.972;8.242;2022-09-16T14:56:22;0.77;;;0.60;;
47856;SDS011;33618;49.972;8.242;2022-09-16T14:59:11;0.47;;;0.47;;
47856;SDS011;33618;49.972;8.242;2022-09-16T15:02:02;1.73;;;0.50;;
47856;SDS011;33618;49.972;8.242;2022-09-16T15:05:04;0.65;;;0.50;;
47856;SDS011;33618;49.972;8.242;2022-09-16T15:08:17;0.80;;;0.50;;
47856;SDS011;33618;49.972;8.242;2022-09-16T15:11:11;1.20;;;0.43;;
47856;SDS011;33618;49.972;8.242;2022-09-16T15:14:20;1.00;;;0.60;;
47856;SDS011;33618;49.972;8.242;2022-09-16T15:17:06;1.03;;;0.37;;
47856;SDS011;33618;49.972;8.242;2022-09-16T15:19:53;2.05;;;0.40;;
47856;SDS011;33618;49.972;8.242;2022-09-16T15:22:41;2.90;;;0.50;;
47856;SDS011;33618;49.972;8.242;2022-09-16T15:25:28;0.30;;;0.30;;
47856;SDS011;33618;49.972;8.242;2022-09-16T15:28:18;1.65;;;0.32;;
47856;SDS011;33618;49.972;8.242;2022-09-16T15:31:05;2.67;;;0.40;;
47856;SDS011;33618;49.972;8.242;2022-09-16T15:33:51;0.32;;;0.32;;
47856;SDS011;33618;49.972;8.242;2022-09-16T15:36:37;1.17;;;0.35;;
47856;SDS011;33618;49.972;8.242;2022-09-16T15:39:28;2.17;;;0.90;;
47856;SDS011;33618;49.972;8.242;2022-09-16T15:47:29;9.23;;;0.90;;
47856;SDS011;33618;49.972;8.242;2022-09-16T15:50:17;1.93;;;0.60;;
47856;SDS011;33618;49.972;8.242;2022-09-16T15:56:02;0.68;;;0.63;;
47856;SDS011;33618;49.972;8.242;2022-09-16T16:05:29;0.65;;;0.65;;
47856;SDS011;33618;49.972;8.242;2022-09-16T16:08:35;0.95;;;0.75;;
47856;SDS011;33618;49.972;8.242;2022-09-16T16:11:25;0.63;;;0.47;;
47856;SDS011;33618;49.972;8.242;2022-09-16T16:14:11;0.73;;;0.60;;
47856;SDS011;33618;49.972;8.242;2022-09-16T16:17:01;0.98;;;0.60;;
47856;SDS011;33618;49.972;8.242;2022-09-16T16:19:58;2.53;;;0.80;;
47856;SDS011;33618;49.972;8.242;2022-09-16T16:22:43;0.60;;;0.50;;
47856;SDS011;33618;49.972;8.242;2022-09-16T16:25:29;0.85;;;0.50;;
47856;SDS011;33618;49.972;8.242;2022-09-16T16:28:15;0.75;;;0.70;;
47856;SDS011;33618;49.972;8.242;2022-09-16T16:31:07;0.40;;;0.40;;
47856;SDS011;33618;49.972;8.242;2022-09-16T16:33:53;0.63;;;0.50;;
47856;SDS011;33618;49.972;8.242;2022-09-16T16:36:39;2.42;;;0.60;;
47856;SDS011;33618;49.972;8.242;2022-09-16T16:43:06;0.90;;;0.50;;
47856;SDS011;33618;49.972;8.242;2022-09-16T16:45:56;1.38;;;0.60;;
47856;SDS011;33618;49.972;8.242;2022-09-16T16:48:41;1.65;;;0.80;;
47856;SDS011;33618;49.972;8.242;2022-09-16T16:51:27;0.57;;;0.57;;
47856;SDS011;33618;49.972;8.242;2022-09-16T16:54:13;1.75;;;0.60;;
47856;SDS011;33618;49.972;8.242;2022-09-16T16:56:59;1.60;;;0.80;;
47856;SDS011;33618;49.972;8.242;2022-09-16T16:59:48;0.60;;;0.60;;
47856;SDS011;33618;49.972;8.242;2022-09-16T17:02:34;0.57;;;0.57;;
47856;SDS011;33618;49.972;8.242;2022-09-16T17:05:19;4.45;;;0.70;;
47856;SDS011;33618;49.972;8.242;2022-09-16T17:08:05;1.02;;;0.70;;
47856;SDS011;33618;49.972;8.242;2022-09-16T17:14:02;1.70;;;0.60;;
47856;SDS011;33618;49.972;8.242;2022-09-16T17:16:49;2.38;;;0.80;;
47856;SDS011;33618;49.972;8.242;2022-09-16T17:19:36;1.55;;;0.50;;
47856;SDS011;33618;49.972;8.242;2022-09-16T17:22:21;2.28;;;0.65;;
47856;SDS011;33618;49.972;8.242;2022-09-16T17:25:07;1.85;;;0.60;;
47856;SDS011;33618;49.972;8.242;2022-09-16T17:27:52;0.88;;;0.60;;
47856;SDS011;33618;49.972;8.242;2022-09-16T17:30:41;0.77;;;0.77;;
47856;SDS011;33618;49.972;8.242;2022-09-16T17:33:27;1.95;;;0.65;;
47856;SDS011;33618;49.972;8.242;2022-09-16T17:36:15;0.60;;;0.52;;
47856;SDS011;33618;49.972;8.242;2022-09-16T17:39:06;0.52;;;0.52;;
47856;SDS011;33618;49.972;8.242;2022-09-16T17:45:37;0.70;;;0.55;;
47856;SDS011;33618;49.972;8.242;2022-09-16T17:48:22;0.88;;;0.60;;
47856;SDS011;33618;49.972;8.242;2022-09-16T17:51:08;1.27;;;0.70;;
47856;SDS011;33618;49.972;8.242;2022-09-16T17:53:54;1.48;;;0.80;;
47856;SDS011;33618;49.972;8.242;2022-09-16T17:56:40;0.68;;;0.68;;
47856;SDS011;33618;49.972;8.242;2022-09-16T18:00:03;0.70;;;0.70;;
47856;SDS011;33618;49.972;8.242;2022-09-16T18:02:49;1.95;;;0.60;;
47856;SDS011;33618;49.972;8.242;2022-09-16T18:05:35;0.98;;;0.80;;
47856;SDS011;33618;49.972;8.242;2022-09-16T18:08:21;1.00;;;0.57;;
47856;SDS011;33618;49.972;8.242;2022-09-16T18:13:56;1.40;;;0.40;;
47856;SDS011;33618;49.972;8.242;2022-09-16T18:16:42;0.45;;;0.45;;
47856;SDS011;33618;49.972;8.242;2022-09-16T18:19:53;1.67;;;0.50;;
47856;SDS011;33618;49.972;8.242;2022-09-16T18:22:39;0.68;;;0.50;;
47856;SDS011;33618;49.972;8.242;2022-09-16T18:25:24;0.40;;;0.40;;
47856;SDS011;33618;49.972;8.242;2022-09-16T18:28:10;0.50;;;0.50;;
47856;SDS011;33618;49.972;8.242;2022-09-16T18:30:59;0.50;;;0.50;;
47856;SDS011;33618;49.972;8.242;2022-09-16T18:33:48;0.50;;;0.50;;
47856;SDS011;33618;49.972;8.242;2022-09-16T18:36:35;1.17;;;0.40;;
47856;SDS011;33618;49.972;8.242;2022-09-16T18:39:21;0.60;;;0.60;;
47856;SDS011;33618;49.972;8.242;2022-09-16T18:49:49;0.40;;;0.40;;
47856;SDS011;33618;49.972;8.242;2022-09-16T18:52:34;1.45;;;0.40;;
47856;SDS011;33618;49.972;8.242;2022-09-16T18:55:20;2.17;;;0.50;;
47856;SDS011;33618;49.972;8.242;2022-09-16T18:58:05;0.40;;;0.40;;
47856;SDS011;33618;49.972;8.242;2022-09-16T19:00:51;0.45;;;0.40;;
47856;SDS011;33618;49.972;8.242;2022-09-16T19:03:37;1.00;;;0.50;;
47856;SDS011;33618;49.972;8.242;2022-09-16T19:06:22;1.02;;;0.52;;
47856;SDS011;33618;49.972;8.242;2022-09-16T19:14:05;0.75;;;0.50;;
47856;SDS011;33618;49.972;8.242;2022-09-16T19:16:53;1.15;;;0.68;;
47856;SDS011;33618;49.972;8.242;2022-09-16T19:19:39;0.73;;;0.50;;
47856;SDS011;33618;49.972;8.242;2022-09-16T19:22:24;0.85;;;0.50;;
47856;SDS011;33618;49.972;8.242;2022-09-16T19:25:10;1.30;;;0.68;;
47856;SDS011;33618;49.972;8.242;2022-09-16T19:27:56;2.53;;;0.52;;
47856;SDS011;33618;49.972;8.242;2022-09-16T19:30:42;1.60;;;0.57;;
47856;SDS011;33618;49.972;8.242;2022-09-16T19:33:27;1.10;;;0.50;;
47856;SDS011;33618;49.972;8.242;2022-09-16T19:39:15;1.30;;;0.60;;
47856;SDS011;33618;49.972;8.242;2022-09-16T19:49:45;0.65;;;0.63;;
47856;SDS011;33618;49.972;8.242;2022-09-16T19:52:30;1.85;;;0.50;;
47856;SDS011;33618;49.972;8.242;2022-09-16T19:55:16;4.15;;;1.25;;
47856;SDS011;33618;49.972;8.242;2022-09-16T19:58:02;0.75;;;0.60;;
47856;SDS011;33618;49.972;8.242;2022-09-16T20:00:48;2.70;;;0.52;;
47856;SDS011;33618;49.972;8.242;2022-09-16T20:03:41;0.70;;;0.70;;
47856;SDS011;33618;49.972;8.242;2022-09-16T20:06:32;0.60;;;0.60;;
47856;SDS011;33618;49.972;8.242;2022-09-16T20:09:20;0.65;;;0.50;;
47856;SDS011;33618;49.972;8.242;2022-09-16T20:12:05;2.83;;;0.57;;
47856;SDS011;33618;49.972;8.242;2022-09-16T20:14:51;0.57;;;0.57;;
47856;SDS011;33618;49.972;8.242;2022-09-16T20:17:36;0.95;;;0.60;;
47856;SDS011;33618;49.972;8.242;2022-09-16T20:20:22;0.65;;;0.65;;
47856;SDS011;33618;49.972;8.242;2022-09-16T20:23:08;1.07;;;0.70;;
47856;SDS011;33618;49.972;8.242;2022-09-16T20:25:55;2.70;;;0.65;;
47856;SDS011;33618;49.972;8.242;2022-09-16T20:28:41;3.42;;;0.60;;
47856;SDS011;33618;49.972;8.242;2022-09-16T20:31:28;1.05;;;0.60;;
47856;SDS011;33618;49.972;8.242;2022-09-16T20:34:15;1.67;;;0.70;;
47856;SDS011;33618;49.972;8.242;2022-09-16T20:37:01;1.40;;;0.60;;
47856;SDS011;33618;49.972;8.242;2022-09-16T20:39:46;2.63;;;0.70;;
47856;SDS011;33618;49.972;8.242;2022-09-16T20:50:21;2.35;;;0.70;;
47856;SDS011;33618;49.972;8.242;2022-09-16T20:53:08;1.27;;;0.70;;
47856;SDS011;33618;49.972;8.242;2022-09-16T20:55:58;0.80;;;0.80;;
47856;SDS011;33618;49.972;8.242;2022-09-16T20:58:46;2.92;;;0.85;;
47856;SDS011;33618;49.972;8.242;2022-09-16T21:01:31;1.77;;;0.50;;
47856;SDS011;33618;49.972;8.242;2022-09-16T21:04:18;0.70;;;0.70;;
47856;SDS011;33618;49.972;8.242;2022-09-16T21:07:04;2.15;;;0.60;;
47856;SDS011;33618;49.972;8.242;2022-09-16T21:09:49;0.90;;;0.57;;
47856;SDS011;33618;49.972;8.242;2022-09-16T21:12:35;2.67;;;0.70;;
47856;SDS011;33618;49.972;8.242;2022-09-16T21:15:20;2.35;;;0.77;;
47856;SDS011;33618;49.972;8.242;2022-09-16T21:18:06;0.60;;;0.60;;
47856;SDS011;33618;49.972;8.242;2022-09-16T21:23:47;1.92;;;0.80;;
47856;SDS011;33618;49.972;8.242;2022-09-16T21:26:34;1.65;;;0.60;;
47856;SDS011;33618;49.972;8.242;2022-09-16T21:29:20;0.95;;;0.60;;
47856;SDS011;33618;49.972;8.242;2022-09-16T21:32:06;3.70;;;0.80;;
47856;SDS011;33618;49.972;8.242;2022-09-16T21:34:53;2.00;;;0.70;;
47856;SDS011;33618;49.972;8.242;2022-09-16T21:37:39;1.27;;;0.68;;
47856;SDS011;33618;49.972;8.242;2022-09-16T21:40:24;2.85;;;0.90;;
47856;SDS011;33618;49.972;8.242;2022-09-16T21:50:52;3.40;;;0.70;;
47856;SDS011;33618;49.972;8.242;2022-09-16T21:53:44;1.48;;;1.10;;
47856;SDS011;33618;49.972;8.242;2022-09-16T21:56:31;1.73;;;0.80;;
47856;SDS011;33618;49.972;8.242;2022-09-16T21:59:17;3.72;;;0.70;;
47856;SDS011;33618;49.972;8.242;2022-09-16T22:02:05;2.92;;;0.82;;
47856;SDS011;33618;49.972;8.242;2022-09-16T22:04:51;3.67;;;0.95;;
47856;SDS011;33618;49.972;8.242;2022-09-16T22:07:37;3.30;;;0.82;;
47856;SDS011;33618;49.972;8.242;2022-09-16T22:10:22;1.45;;;1.02;;
47856;SDS011;33618;49.972;8.242;2022-09-16T22:15:54;0.85;;;0.70;;
47856;SDS011;33618;49.972;8.242;2022-09-16T22:18:40;5.18;;;0.88;;
47856;SDS011;33618;49.972;8.242;2022-09-16T22:28:41;1.42;;;0.80;;
47856;SDS011;33618;49.972;8.242;2022-09-16T22:31:27;3.10;;;0.65;;
47856;SDS011;33618;49.972;8.242;2022-09-16T22:34:15;2.63;;;0.80;;
47856;SDS011;33618;49.972;8.242;2022-09-16T22:37:00;2.45;;;0.80;;
47856;SDS011;33618;49.972;8.242;2022-09-16T22:39:47;4.70;;;0.85;;
47856;SDS011;33618;49.972;8.242;2022-09-16T22:42:33;5.40;;;1.00;;
47856;SDS011;33618;49.972;8.242;2022-09-16T22:49:00;3.08;;;0.85;;
47856;SDS011;33618;49.972;8.242;2022-09-16T22:51:46;3.03;;;0.75;;
47856;SDS011;33618;49.972;8.242;2022-09-16T22:54:32;2.92;;;0.75;;